Time;durP1;ratioP1;P1;durP2;ratioP2;P2;SDS_P1;SDS_P2;PMS_P1;PMS_P2;Temp;Humidity;BMP_temperature;BMP_pressure;BME280_temperature;BME280_humidity;BME280_pressure;Samples;Min_cycle;Max_cycle;Signal;HPM_P1;HPM_P2
2021/04/08 04:01:10;;;;;;;10.35;7.53;;;;;;;3.10;60.91;94470.98;827454;71;28903;-77
2021/04/08 04:16:17;;;;;;;10.23;7.72;;;;;;;3.18;60.66;94482.22;826362;71;31756;-79
2021/04/08 04:31:08;;;;;;;10.80;8.20;;;;;;;3.26;60.88;94519.88;833353;71;28512;-78
2021/04/08 04:46:14;;;;;;;13.15;9.08;;;;;;;3.29;60.87;94531.60;833079;71;32099;-78
2021/04/08 05:01:12;;;;;;;11.68;9.05;;;;;;;3.31;61.15;94537.33;833266;71;31344;-78
2021/04/08 05:16:09;;;;;;;17.90;9.25;;;;;;;3.48;60.64;94558.79;833864;71;29246;-80
2021/04/08 05:31:18;;;;;;;11.63;9.78;;;;;;;3.77;60.02;94562.48;826816;71;32845;-78
2021/04/08 05:46:14;;;;;;;14.15;9.50;;;;;;;4.09;58.84;94569.58;828111;71;30535;-80
2021/04/08 06:01:18;;;;;;;14.05;9.78;;;;;;;4.48;57.48;94585.80;828268;71;31738;-81
2021/04/08 06:16:13;;;;;;;9.98;8.05;;;;;;;4.86;56.39;94610.00;828118;71;32028;-79
2021/04/08 06:31:11;;;;;;;10.00;8.75;;;;;;;5.38;55.54;94623.62;827521;71;30827;-78
2021/04/08 06:46:21;;;;;;;12.05;9.08;;;;;;;5.67;54.58;94638.09;826922;71;32665;-78
2021/04/08 07:01:18;;;;;;;12.18;9.68;;;;;;;6.27;53.66;94647.23;827205;71;32779;-78
2021/04/08 07:16:16;;;;;;;10.53;9.10;;;;;;;6.96;51.73;94655.69;833472;71;33827;-77
2021/04/08 07:31:23;;;;;;;11.43;9.38;;;;;;;8.68;49.93;94671.72;828315;71;30340;-79
2021/04/08 07:46:26;;;;;;;10.68;8.98;;;;;;;;;;833917;71;30321;-75
2021/04/08 08:01:15;;;;;;;10.55;8.75;;;;;;;11.95;41.21;94673.36;834738;71;32123;-77
2021/04/08 08:16:20;;;;;;;9.43;8.30;;;;;;;12.69;39.85;94679.00;827083;71;33178;-76
2021/04/08 09:16:16;;;;;;;8.50;7.30;;;;;;;10.16;100.00;74917.59;827569;71;30267;-77
2021/04/08 09:31:19;;;;;;;9.20;7.45;;;;;;;;;;826730;71;29719;-79
2021/04/08 09:46:30;;;;;;;8.90;7.10;;;;;;;10.61;39.89;94688.53;833533;71;33738;-79
2021/04/08 10:01:16;;;;;;;14.07;6.53;;;;;;;10.77;37.45;94697.53;827020;71;33122;-77
2021/04/08 10:16:16;;;;;;;5.97;5.25;;;;;;;10.96;55.13;94706.71;827970;71;30793;-77
2021/04/08 10:31:25;;;;;;;9.48;7.80;;;;;;;12.46;34.20;94700.00;833715;71;32697;-77
2021/04/08 10:46:11;;;;;;;8.33;7.53;;;;;;;11.15;35.44;94696.98;828782;71;30595;-77
2021/04/08 11:01:07;;;;;;;7.30;6.15;;;;;;;;;;829547;71;29703;-82
2021/04/08 11:16:08;;;;;;;6.92;5.92;;;;;;;;;;828066;71;30265;-80
2021/04/08 11:31:21;;;;;;;6.12;5.60;;;;;;;10.32;38.10;94704.38;827082;71;32692;-81
2021/04/08 11:46:40;;;;;;;5.35;4.85;;;;;;;9.82;37.25;94713.00;827141;71;32644;-77
2021/04/08 12:01:17;;;;;;;6.25;5.03;;;;;;;10.96;39.75;94721.92;826806;71;30535;-79
2021/04/08 12:16:11;;;;;;;5.83;4.35;;;;;;;10.73;36.05;94725.41;827430;71;30253;-75
2021/04/08 12:31:18;;;;;;;4.70;4.30;;;;;;;9.70;38.77;94753.98;833391;71;32726;-76
2021/04/08 12:46:19;;;;;;;4.33;3.22;;;;;;;8.83;39.36;94780.73;827023;71;32686;-79
2021/04/08 13:01:11;;;;;;;3.25;3.05;;;;;;;7.87;37.21;94766.34;827898;71;31428;-77
2021/04/08 13:16:08;;;;;;;3.65;3.35;;;;;;;7.14;39.30;94779.11;828813;71;29421;-76
2021/04/08 13:31:09;;;;;;;4.03;3.72;;;;;;;6.62;42.74;94819.11;833355;71;30901;-76
2021/04/08 13:46:16;;;;;;;3.40;3.20;;;;;;;6.26;42.26;94809.80;827054;71;32719;-76
2021/04/08 14:01:18;;;;;;;4.22;3.83;;;;;;;11.92;39.64;94829.88;833469;71;32767;-78
2021/04/08 14:16:11;;;;;;;4.12;3.77;;;;;;;9.59;37.93;94841.55;828045;71;30255;-78
2021/04/08 14:31:10;;;;;;;3.85;3.55;;;;;;;9.41;37.29;94853.48;818677;71;30428;-80
2021/04/08 14:46:09;;;;;;;4.45;3.92;;;;;;;8.59;38.52;94857.72;827756;71;30113;-77
2021/04/08 15:01:48;;;;;;;5.25;4.20;;;;;;;8.43;38.70;94875.27;827606;71;33198;-78
2021/04/08 15:16:20;;;;;;;4.72;4.20;;;;;;;14.27;35.38;94871.60;827481;71;32690;-78
2021/04/08 15:31:17;;;;;;;7.87;5.40;;;;;;;10.67;35.78;94886.07;826703;71;32716;-80
2021/04/08 15:46:08;;;;;;;7.95;5.83;;;;;;;9.56;36.27;94905.76;819670;71;29714;-77
2021/04/08 16:01:12;;;;;;;4.00;3.70;;;;;;;8.66;35.82;94918.40;827435;71;32762;-77
2021/04/08 16:16:11;;;;;;;8.55;6.22;;;;;;;8.23;36.44;94923.09;820131;71;30246;-77
2021/04/08 16:31:08;;;;;;;6.60;5.45;;;;;;;7.95;36.82;94937.47;827931;71;29767;-77
2021/04/08 16:46:15;;;;;;;4.20;3.80;;;;;;;7.35;36.71;94948.27;826871;71;32734;-79
2021/04/08 17:01:10;;;;;;;5.15;4.10;;;;;;;6.88;37.79;94970.50;828274;71;30101;-77
2021/04/08 17:16:15;;;;;;;7.67;6.87;;;;;;;6.43;39.13;94997.30;833458;71;33221;-79
2021/04/08 17:31:23;;;;;;;8.40;5.78;;;;;;;6.08;40.50;95008.95;825168;70;32730;-83
2021/04/08 17:46:17;;;;;;;7.15;5.70;;;;;;;5.59;40.96;95029.24;822520;70;32773;-85
